createdAt,value
2023-04-14T00:01:21.456Z,4.15
2023-04-14T00:03:52.292Z,4.70
2023-04-14T00:06:20.892Z,3.92
2023-04-14T00:08:49.209Z,4.10
2023-04-14T00:11:17.751Z,4.38
2023-04-14T00:13:46.925Z,4.28
2023-04-14T00:16:15.595Z,4.28
2023-04-14T00:18:44.109Z,3.78
2023-04-14T00:21:14.010Z,3.60
2023-04-14T00:23:42.270Z,2.55
2023-04-14T00:26:11.782Z,2.83
2023-04-14T00:28:40.134Z,3.28
2023-04-14T00:31:08.461Z,2.33
2023-04-14T00:33:36.759Z,2.92
2023-04-14T00:36:05.912Z,2.70
2023-04-14T00:38:35.580Z,3.20
2023-04-14T00:41:03.957Z,3.22
2023-04-14T00:43:32.220Z,2.88
2023-04-14T00:46:03.762Z,2.70
2023-04-14T00:48:32.506Z,3.10
2023-04-14T00:51:02.417Z,3.40
2023-04-14T00:53:30.769Z,3.30
2023-04-14T00:56:01.190Z,3.28
2023-04-14T00:58:29.701Z,3.03
2023-04-14T01:00:59.441Z,2.53
2023-04-14T01:03:27.976Z,2.80
2023-04-14T01:05:56.795Z,2.83
2023-04-14T01:08:25.331Z,3.17
2023-04-14T01:11:13.162Z,2.20
2023-04-14T01:13:49.749Z,1.75
2023-04-14T01:16:21.774Z,1.60
2023-04-14T01:18:56.847Z,1.73
2023-04-14T01:21:33.300Z,1.52
2023-04-14T01:24:18.569Z,2.00
2023-04-14T01:26:48.979Z,1.80
2023-04-14T01:29:44.556Z,1.40
2023-04-14T01:32:21.038Z,1.25
2023-04-14T01:34:55.544Z,0.88
2023-04-14T01:37:30.517Z,1.00
2023-04-14T01:40:03.211Z,1.08
2023-04-14T01:42:34.835Z,0.63
2023-04-14T01:45:10.048Z,0.82
2023-04-14T01:47:41.966Z,0.73
2023-04-14T01:50:12.654Z,0.70
2023-04-14T01:52:44.229Z,1.20
2023-04-14T01:55:14.229Z,0.70
2023-04-14T01:57:44.274Z,0.98
2023-04-14T02:00:14.579Z,0.95
2023-04-14T02:02:47.632Z,0.70
2023-04-14T02:05:18.495Z,0.80
2023-04-14T02:07:49.035Z,0.93
2023-04-14T02:10:19.132Z,0.60
2023-04-14T02:12:48.459Z,0.82
2023-04-14T02:15:18.902Z,0.82
2023-04-14T02:17:51.846Z,0.57
2023-04-14T02:20:25.002Z,1.40
2023-04-14T02:22:56.816Z,1.30
2023-04-14T02:25:30.924Z,0.95
2023-04-14T02:28:06.774Z,0.82
2023-04-14T02:30:39.613Z,1.05
2023-04-14T02:33:11.784Z,0.80
2023-04-14T02:35:47.125Z,0.80
2023-04-14T02:38:21.219Z,1.10
2023-04-14T02:40:50.693Z,0.95
2023-04-14T02:43:21.996Z,1.10
2023-04-14T02:45:52.774Z,1.25
2023-04-14T02:48:26.064Z,1.20
2023-04-14T02:50:58.225Z,0.73
2023-04-14T02:53:27.889Z,0.82
2023-04-14T02:55:56.433Z,1.45
2023-04-14T02:58:24.942Z,1.35
2023-04-14T03:00:54.164Z,1.20
2023-04-14T03:03:27.643Z,0.90
2023-04-14T03:05:56.903Z,0.90
2023-04-14T03:08:26.622Z,1.20
2023-04-14T03:10:59.527Z,1.25
2023-04-14T03:13:30.160Z,1.27
2023-04-14T03:15:59.755Z,1.42
2023-04-14T03:18:32.159Z,1.30
2023-04-14T03:21:02.800Z,1.27
2023-04-14T03:23:32.517Z,1.20
2023-04-14T03:26:03.487Z,1.35
2023-04-14T03:28:38.767Z,1.50
2023-04-14T03:31:09.267Z,0.85
2023-04-14T03:33:40.777Z,1.30
2023-04-14T03:36:10.152Z,1.27
2023-04-14T03:38:39.160Z,1.50
2023-04-14T03:41:09.720Z,1.30
2023-04-14T03:43:38.781Z,1.23
2023-04-14T03:46:08.015Z,1.35
2023-04-14T03:48:42.982Z,1.02
2023-04-14T03:51:14.246Z,0.98
2023-04-14T03:53:48.185Z,0.75
2023-04-14T03:56:18.717Z,0.80
2023-04-14T03:58:49.487Z,0.50
2023-04-14T04:01:19.182Z,0.60
2023-04-14T04:03:52.466Z,0.40
2023-04-14T04:06:21.334Z,1.00
2023-04-14T04:08:52.841Z,0.82
2023-04-14T04:11:26.121Z,0.73
2023-04-14T04:13:56.197Z,0.80
2023-04-14T04:16:27.746Z,1.23
2023-04-14T04:18:59.007Z,1.15
2023-04-14T04:21:31.996Z,0.90
2023-04-14T04:24:03.286Z,0.73
2023-04-14T04:26:31.630Z,0.20
2023-04-14T04:29:00.738Z,0.75
2023-04-14T04:31:33.280Z,0.47
2023-04-14T04:34:04.642Z,0.63
2023-04-14T04:36:36.767Z,1.00
2023-04-14T04:39:07.728Z,0.93
2023-04-14T04:41:36.219Z,0.70
2023-04-14T04:44:05.768Z,0.50
2023-04-14T04:46:47.876Z,0.25
2023-04-14T04:49:18.101Z,0.73
2023-04-14T04:51:46.596Z,0.30
2023-04-14T04:54:15.684Z,0.70
2023-04-14T04:56:44.265Z,0.70
2023-04-14T04:59:12.638Z,1.00
2023-04-14T05:01:41.875Z,0.90
2023-04-14T05:04:10.774Z,0.93
2023-04-14T05:06:40.975Z,0.90
2023-04-14T05:09:09.241Z,1.00
2023-04-14T05:11:38.040Z,1.23
2023-04-14T05:14:06.455Z,1.08
2023-04-14T05:16:34.776Z,1.33
2023-04-14T05:19:03.631Z,1.02
2023-04-14T05:21:31.959Z,0.98
2023-04-14T05:24:04.771Z,1.00
2023-04-14T05:26:52.064Z,1.13
2023-04-14T05:29:21.727Z,1.38
2023-04-14T05:31:49.927Z,1.42
2023-04-14T05:34:18.499Z,0.85
2023-04-14T05:36:46.787Z,0.85
2023-04-14T05:39:16.732Z,0.80
2023-04-14T05:41:45.070Z,0.85
2023-04-14T05:44:13.599Z,0.77
2023-04-14T05:46:42.584Z,0.68
2023-04-14T05:49:11.457Z,1.42
2023-04-14T05:51:40.919Z,1.45
2023-04-14T05:54:09.462Z,1.13
2023-04-14T05:56:39.444Z,1.52
2023-04-14T05:59:10.664Z,1.20
2023-04-14T06:01:39.002Z,1.10
2023-04-14T06:04:11.026Z,0.65
2023-04-14T06:06:44.334Z,0.50
2023-04-14T06:09:12.536Z,0.80
2023-04-14T06:11:42.383Z,1.10
2023-04-14T06:14:11.306Z,0.70
2023-04-14T06:16:39.767Z,1.00
2023-04-14T06:19:08.445Z,1.17
2023-04-14T06:21:36.749Z,0.85
2023-04-14T06:24:05.346Z,1.42
2023-04-14T06:26:33.658Z,0.55
2023-04-14T06:29:03.686Z,1.00
2023-04-14T06:31:32.223Z,1.10
2023-04-14T06:34:00.546Z,1.17
2023-04-14T06:36:28.822Z,1.40
2023-04-14T06:38:58.909Z,0.73
2023-04-14T06:41:27.515Z,1.10
2023-04-14T06:43:56.017Z,1.13
2023-04-14T06:46:29.437Z,1.08
2023-04-14T06:48:57.680Z,1.33
2023-04-14T06:51:27.328Z,0.80
2023-04-14T06:53:55.688Z,1.00
2023-04-14T06:56:23.977Z,2.17
2023-04-14T06:58:52.397Z,1.45
2023-04-14T07:01:20.846Z,1.65
2023-04-14T07:03:50.802Z,1.35
2023-04-14T07:06:19.444Z,1.33
2023-04-14T07:08:48.332Z,1.25
2023-04-14T07:11:16.647Z,1.20
2023-04-14T07:13:44.976Z,1.00
2023-04-14T07:16:13.813Z,1.08
2023-04-14T07:18:42.276Z,1.00
2023-04-14T07:21:14.963Z,1.40
2023-04-14T07:23:43.313Z,1.92
2023-04-14T07:26:12.009Z,1.40
2023-04-14T07:28:40.556Z,1.30
2023-04-14T07:31:09.677Z,0.95
2023-04-14T07:33:38.127Z,1.48
2023-04-14T07:36:11.859Z,1.33
2023-04-14T07:38:45.588Z,1.30
2023-04-14T07:41:14.069Z,1.25
2023-04-14T07:43:42.549Z,1.25
2023-04-14T07:46:13.743Z,1.58
2023-04-14T07:48:42.833Z,1.60
2023-04-14T07:51:12.934Z,2.00
2023-04-14T07:53:43.751Z,1.75
2023-04-14T07:56:12.663Z,1.98
2023-04-14T07:58:41.460Z,1.90
2023-04-14T08:01:10.038Z,1.70
2023-04-14T08:03:38.620Z,1.85
2023-04-14T08:06:07.797Z,1.58
2023-04-14T08:08:38.349Z,1.70
2023-04-14T08:11:06.733Z,1.58
2023-04-14T08:13:37.010Z,2.17
2023-04-14T08:16:06.072Z,1.85
2023-04-14T08:18:34.708Z,1.30
2023-04-14T08:21:03.287Z,1.00
2023-04-14T08:23:33.240Z,1.42
2023-04-14T08:26:04.370Z,1.33
2023-04-14T08:28:32.961Z,1.35
2023-04-14T08:31:02.907Z,1.45
2023-04-14T08:33:34.275Z,1.25
2023-04-14T08:36:05.698Z,1.45
2023-04-14T08:38:34.138Z,1.45
2023-04-14T08:41:10.025Z,0.95
2023-04-14T08:43:38.406Z,1.40
2023-04-14T08:46:11.086Z,1.27
2023-04-14T08:48:40.777Z,1.13
2023-04-14T08:51:15.100Z,1.48
2023-04-14T08:53:48.761Z,1.20
2023-04-14T08:56:22.208Z,1.05
2023-04-14T08:58:50.548Z,1.40
2023-04-14T09:01:22.056Z,1.08
2023-04-14T09:03:51.400Z,1.20
2023-04-14T09:06:20.516Z,1.27
2023-04-14T09:08:48.902Z,1.10
2023-04-14T09:11:20.537Z,1.13
2023-04-14T09:13:51.177Z,1.00
2023-04-14T09:16:21.062Z,1.10
2023-04-14T09:18:49.965Z,0.75
2023-04-14T09:21:28.931Z,1.08
2023-04-14T09:24:10.442Z,0.77
2023-04-14T09:26:47.403Z,0.60
2023-04-14T09:29:15.784Z,0.88
2023-04-14T09:31:44.747Z,0.95
2023-04-14T09:34:18.829Z,0.70
2023-04-14T09:37:02.716Z,0.52
2023-04-14T09:39:31.449Z,0.57
2023-04-14T09:42:02.333Z,0.50
2023-04-14T09:44:31.758Z,1.08
2023-04-14T09:47:02.197Z,0.75
2023-04-14T09:49:32.004Z,0.40
2023-04-14T09:52:08.317Z,0.57
2023-04-14T09:54:38.397Z,0.60
2023-04-14T09:57:08.615Z,0.30
2023-04-14T09:59:38.844Z,0.30
2023-04-14T10:02:12.284Z,0.40
2023-04-14T10:04:40.998Z,0.50
2023-04-14T10:07:09.333Z,0.95
2023-04-14T10:09:39.222Z,0.70
2023-04-14T10:12:13.995Z,0.30
2023-04-14T10:14:44.183Z,0.75
2023-04-14T10:17:13.700Z,0.82
2023-04-14T10:19:43.961Z,0.95
2023-04-14T10:22:12.697Z,0.50
2023-04-14T10:24:46.384Z,0.65
2023-04-14T10:27:17.920Z,0.52
2023-04-14T10:29:47.365Z,0.80
2023-04-14T10:32:17.803Z,0.47
2023-04-14T10:34:59.308Z,0.35
2023-04-14T10:37:27.700Z,0.28
2023-04-14T10:39:57.297Z,0.40
2023-04-14T10:42:28.912Z,0.80
2023-04-14T10:45:06.070Z,0.55
2023-04-14T10:47:42.619Z,0.63
2023-04-14T10:50:15.730Z,0.60
2023-04-14T10:52:56.159Z,0.98
2023-04-14T10:55:26.031Z,0.63
2023-04-14T10:58:05.593Z,0.85
2023-04-14T11:00:39.570Z,0.40
2023-04-14T11:03:13.383Z,0.57
2023-04-14T11:05:44.879Z,0.43
2023-04-14T11:08:19.393Z,0.68
2023-04-14T11:10:52.433Z,0.60
2023-04-14T11:13:22.322Z,0.82
2023-04-14T11:15:54.531Z,0.63
2023-04-14T11:18:34.851Z,0.52
2023-04-14T11:21:06.022Z,0.45
2023-04-14T11:23:35.784Z,0.40
2023-04-14T11:26:07.626Z,0.30
2023-04-14T11:28:39.759Z,0.77
2023-04-14T11:31:12.150Z,0.40
2023-04-14T11:33:41.809Z,0.38
2023-04-14T11:36:12.787Z,0.55
2023-04-14T11:38:41.600Z,0.60
2023-04-14T11:41:10.543Z,0.28
2023-04-14T11:43:46.743Z,0.75
2023-04-14T11:46:16.442Z,0.73
2023-04-14T11:48:45.667Z,0.82
2023-04-14T11:51:14.324Z,0.52
2023-04-14T11:53:48.711Z,1.20
2023-04-14T11:56:17.624Z,0.47
2023-04-14T11:58:47.923Z,0.55
2023-04-14T12:01:16.283Z,0.70
2023-04-14T12:03:45.317Z,0.98
2023-04-14T12:06:13.915Z,0.50
2023-04-14T12:08:42.186Z,0.50
2023-04-14T12:11:14.887Z,0.60
2023-04-14T12:13:44.079Z,0.47
2023-04-14T12:16:16.350Z,0.80
2023-04-14T12:18:45.557Z,0.35
2023-04-14T12:21:19.690Z,0.50
2023-04-14T12:23:51.710Z,0.88
2023-04-14T12:26:21.450Z,0.65
2023-04-14T12:28:57.088Z,0.40
2023-04-14T12:31:31.292Z,0.65
2023-04-14T12:34:03.701Z,1.00
2023-04-14T12:36:48.579Z,0.65
2023-04-14T12:39:18.648Z,0.55
2023-04-14T12:41:47.388Z,0.80
2023-04-14T12:44:17.413Z,0.57
2023-04-14T12:46:53.133Z,0.77
2023-04-14T12:49:32.144Z,0.77
2023-04-14T12:52:00.561Z,0.85
2023-04-14T12:54:28.824Z,0.63
2023-04-14T12:56:57.221Z,0.60
2023-04-14T12:59:25.442Z,0.88
2023-04-14T13:01:55.586Z,0.50
2023-04-14T13:04:24.207Z,1.08
2023-04-14T13:06:53.050Z,0.88
2023-04-14T13:09:21.513Z,0.80
2023-04-14T13:11:52.883Z,0.65
2023-04-14T13:14:21.291Z,0.57
2023-04-14T13:16:49.573Z,1.42
2023-04-14T13:19:19.586Z,1.20
2023-04-14T13:21:47.957Z,1.20
2023-04-14T13:24:18.065Z,0.90
2023-04-14T13:26:47.198Z,0.95
2023-04-14T13:29:15.598Z,0.82
2023-04-14T13:31:43.968Z,1.10
2023-04-14T13:34:12.402Z,0.85
2023-04-14T13:36:48.589Z,0.50
2023-04-14T13:39:16.824Z,1.02
2023-04-14T13:41:45.349Z,1.20
2023-04-14T13:44:14.090Z,1.20
2023-04-14T13:46:44.750Z,0.95
2023-04-14T13:49:13.719Z,1.00
2023-04-14T13:51:43.565Z,1.10
2023-04-14T13:54:13.485Z,1.15
2023-04-14T13:56:41.892Z,0.60
2023-04-14T13:59:10.247Z,0.85
2023-04-14T14:01:38.797Z,1.58
2023-04-14T14:04:07.394Z,1.50
2023-04-14T14:06:36.344Z,1.13
2023-04-14T14:09:06.770Z,1.60
2023-04-14T14:11:37.027Z,0.90
2023-04-14T14:14:05.372Z,0.93
2023-04-14T14:16:37.192Z,1.20
2023-04-14T14:19:08.404Z,1.00
2023-04-14T14:21:36.957Z,0.88
2023-04-14T14:24:05.447Z,1.00
2023-04-14T14:26:34.011Z,1.17
2023-04-14T14:29:03.882Z,0.60
2023-04-14T14:31:32.110Z,0.82
2023-04-14T14:34:00.861Z,0.57
2023-04-14T14:36:29.452Z,0.60
2023-04-14T14:38:57.727Z,0.70
2023-04-14T14:41:26.360Z,0.68
2023-04-14T14:43:55.004Z,0.40
2023-04-14T14:46:25.204Z,0.70
2023-04-14T14:48:53.718Z,1.15
2023-04-14T14:51:22.120Z,0.80
2023-04-14T14:53:50.679Z,0.45
2023-04-14T14:56:19.730Z,0.32
2023-04-14T14:58:48.211Z,0.47
2023-04-14T15:01:16.900Z,0.77
2023-04-14T15:03:46.696Z,1.10
2023-04-14T15:06:15.125Z,1.05
2023-04-14T15:08:43.895Z,0.57
2023-04-14T15:11:12.214Z,0.75
2023-04-14T15:13:40.486Z,0.82
2023-04-14T15:16:08.976Z,0.77
2023-04-14T15:18:39.544Z,0.43
2023-04-14T15:21:10.311Z,0.35
2023-04-14T15:23:41.404Z,0.52
2023-04-14T15:26:10.148Z,0.55
2023-04-14T15:28:39.777Z,0.90
2023-04-14T15:31:09.202Z,0.73
2023-04-14T15:33:37.558Z,0.82
2023-04-14T15:36:09.796Z,0.45
2023-04-14T15:38:39.080Z,0.70
2023-04-14T15:41:07.451Z,0.60
2023-04-14T15:43:35.837Z,1.02
2023-04-14T15:46:04.439Z,0.45
2023-04-14T15:48:32.792Z,0.73
2023-04-14T15:51:01.175Z,0.70
2023-04-14T15:53:31.192Z,0.60
2023-04-14T15:56:00.311Z,0.50
2023-04-14T15:58:29.672Z,0.40
2023-04-14T16:00:58.813Z,0.73
2023-04-14T16:03:27.435Z,0.65
2023-04-14T16:06:02.895Z,0.77
2023-04-14T16:08:32.725Z,0.95
2023-04-14T16:11:01.306Z,0.70
2023-04-14T16:13:30.120Z,0.70
2023-04-14T16:15:58.575Z,0.80
2023-04-14T16:18:27.159Z,0.75
2023-04-14T16:20:55.528Z,0.80
2023-04-14T16:23:23.917Z,0.77
2023-04-14T16:25:53.727Z,0.55
2023-04-14T16:28:23.115Z,0.68
2023-04-14T16:30:51.796Z,0.70
2023-04-14T16:33:20.327Z,1.23
2023-04-14T16:35:48.694Z,1.42
2023-04-14T16:38:17.327Z,0.80
2023-04-14T16:40:45.583Z,0.82
2023-04-14T16:43:15.743Z,0.80
2023-04-14T16:45:44.055Z,0.70
2023-04-14T16:48:12.448Z,0.73
2023-04-14T16:50:42.937Z,0.90
2023-04-14T16:53:11.676Z,0.63
2023-04-14T16:55:40.033Z,0.40
2023-04-14T16:58:09.863Z,0.50
2023-04-14T17:00:39.791Z,0.70
2023-04-14T17:03:08.926Z,1.00
2023-04-14T17:05:37.556Z,1.08
2023-04-14T17:08:06.259Z,0.90
2023-04-14T17:10:34.531Z,1.17
2023-04-14T17:13:02.867Z,0.88
2023-04-14T17:15:31.492Z,0.80
2023-04-14T17:18:01.336Z,0.75
2023-04-14T17:20:30.766Z,0.60
2023-04-14T17:23:00.446Z,0.88
2023-04-14T17:25:29.523Z,0.90
2023-04-14T17:27:58.620Z,0.68
2023-04-14T17:30:27.567Z,1.00
2023-04-14T17:32:56.769Z,1.00
2023-04-14T17:35:26.623Z,0.60
2023-04-14T17:37:54.976Z,0.98
2023-04-14T17:40:23.367Z,0.75
2023-04-14T17:42:54.767Z,1.00
2023-04-14T17:45:24.205Z,1.40
2023-04-14T17:47:54.813Z,0.90
2023-04-14T17:50:23.922Z,0.50
2023-04-14T17:52:54.929Z,0.75
2023-04-14T17:55:23.251Z,0.70
2023-04-14T17:57:54.086Z,0.90
2023-04-14T18:00:22.852Z,1.40
2023-04-14T18:02:51.432Z,0.90
2023-04-14T18:05:20.123Z,0.77
2023-04-14T18:07:49.506Z,1.10
2023-04-14T18:10:19.699Z,1.02
2023-04-14T18:12:49.440Z,0.90
2023-04-14T18:15:17.996Z,0.63
2023-04-14T18:17:46.919Z,1.42
2023-04-14T18:20:16.117Z,0.85
2023-04-14T18:22:44.614Z,0.80
2023-04-14T18:25:12.959Z,1.70
2023-04-14T18:30:14.537Z,1.15
2023-04-14T18:32:43.505Z,1.27
2023-04-14T18:35:11.947Z,1.15
2023-04-14T18:37:40.375Z,1.27
2023-04-14T18:40:10.637Z,2.05
2023-04-14T18:42:39.302Z,0.98
2023-04-14T18:45:10.402Z,0.73
2023-04-14T18:47:39.267Z,1.02
2023-04-14T18:50:09.390Z,1.13
2023-04-14T18:52:37.752Z,1.30
2023-04-14T18:55:07.295Z,0.80
2023-04-14T18:57:35.630Z,1.33
2023-04-14T19:00:04.871Z,1.23
2023-04-14T19:02:35.603Z,1.33
2023-04-14T19:05:04.265Z,1.27
2023-04-14T19:07:33.039Z,0.80
2023-04-14T19:10:02.555Z,1.20
2023-04-14T19:12:32.199Z,1.30
2023-04-14T19:15:00.539Z,1.20
2023-04-14T19:17:29.093Z,1.40
2023-04-14T19:19:59.075Z,1.42
2023-04-14T19:22:28.465Z,1.52
2023-04-14T19:24:57.605Z,1.52
2023-04-14T19:27:26.505Z,1.35
2023-04-14T19:29:55.191Z,1.15
2023-04-14T19:32:23.602Z,1.25
2023-04-14T19:34:52.107Z,1.30
2023-04-14T19:37:21.990Z,0.93
2023-04-14T19:39:50.734Z,1.80
2023-04-14T19:42:18.990Z,1.27
2023-04-14T19:44:47.401Z,1.20
2023-04-14T19:47:16.079Z,1.20
2023-04-14T19:49:44.630Z,1.40
2023-04-14T19:52:13.385Z,1.05
2023-04-14T19:54:43.362Z,0.95
2023-04-14T19:57:12.336Z,1.38
2023-04-14T19:59:40.734Z,0.90
2023-04-14T20:02:10.820Z,1.30
2023-04-14T20:04:39.588Z,0.73
2023-04-14T20:07:08.084Z,1.00
2023-04-14T20:09:36.540Z,0.93
2023-04-14T20:12:06.465Z,0.98
2023-04-14T20:14:34.950Z,0.95
2023-04-14T20:17:03.511Z,0.82
2023-04-14T20:19:31.794Z,0.52
2023-04-14T20:22:00.244Z,0.80
2023-04-14T20:24:28.619Z,1.02
2023-04-14T20:26:57.107Z,0.98
2023-04-14T20:29:27.042Z,1.75
2023-04-14T20:31:55.507Z,1.08
2023-04-14T20:34:24.057Z,1.00
2023-04-14T20:36:53.726Z,1.60
2023-04-14T20:39:22.234Z,1.30
2023-04-14T20:41:51.809Z,1.10
2023-04-14T20:44:20.186Z,0.77
2023-04-14T20:46:50.426Z,0.90
2023-04-14T20:49:18.869Z,1.13
2023-04-14T20:51:48.960Z,0.77
2023-04-14T20:54:17.809Z,0.73
2023-04-14T20:56:46.760Z,0.95
2023-04-14T20:59:15.351Z,1.02
2023-04-14T21:01:44.079Z,1.27
2023-04-14T21:04:14.192Z,0.93
2023-04-14T21:06:42.788Z,1.00
2023-04-14T21:09:11.250Z,1.10
2023-04-14T21:11:39.949Z,1.30
2023-04-14T21:15:40.857Z,1.17
2023-04-14T21:16:58.704Z,1.45
2023-04-14T21:19:29.570Z,1.17
2023-04-14T21:21:58.289Z,0.52
2023-04-14T21:24:28.774Z,0.85
2023-04-14T21:26:57.646Z,0.95
2023-04-14T21:29:26.144Z,1.25
2023-04-14T21:31:55.076Z,0.70
2023-04-14T21:34:23.727Z,0.80
2023-04-14T21:36:53.934Z,0.90
2023-04-14T21:39:23.105Z,0.50
2023-04-14T21:41:52.622Z,0.88
2023-04-14T21:44:22.033Z,0.68
2023-04-14T21:46:50.445Z,0.50
2023-04-14T21:49:18.808Z,0.40
2023-04-14T21:51:47.659Z,0.68
2023-04-14T21:54:17.730Z,1.00
2023-04-14T21:56:46.448Z,0.80
2023-04-14T21:59:15.007Z,1.25
2023-04-14T22:01:44.178Z,0.68
2023-04-14T22:04:22.199Z,0.90
2023-04-14T22:06:57.559Z,0.68
2023-04-14T22:09:27.536Z,1.05
2023-04-14T22:11:56.078Z,0.77
2023-04-14T22:14:24.583Z,0.90
2023-04-14T22:16:53.084Z,0.65
2023-04-14T22:19:21.422Z,1.02
2023-04-14T22:21:49.914Z,0.80
2023-04-14T22:24:18.685Z,0.70
2023-04-14T22:26:48.511Z,1.05
2023-04-14T22:29:17.065Z,0.80
2023-04-14T22:31:45.361Z,0.82
2023-04-14T22:34:14.178Z,0.88
2023-04-14T22:36:42.791Z,1.00
2023-04-14T22:39:11.310Z,0.93
2023-04-14T22:41:39.859Z,0.80
2023-04-14T22:44:09.601Z,1.10
2023-04-14T22:46:38.075Z,0.77
2023-04-14T22:49:06.697Z,1.23
2023-04-14T22:51:35.112Z,0.73
2023-04-14T22:54:03.770Z,0.55
2023-04-14T22:56:32.260Z,0.90
2023-04-14T22:59:01.386Z,1.02
2023-04-14T23:01:31.624Z,0.90
2023-04-14T23:04:00.522Z,1.20
2023-04-14T23:06:29.324Z,1.48
2023-04-14T23:08:57.812Z,1.30
2023-04-14T23:11:26.139Z,1.00
2023-04-14T23:13:54.508Z,1.13
2023-04-14T23:16:23.083Z,0.57
2023-04-14T23:18:53.179Z,0.75
2023-04-14T23:21:22.495Z,1.13
2023-04-14T23:23:51.382Z,0.60
2023-04-14T23:26:20.386Z,0.70
2023-04-14T23:28:48.839Z,1.17
2023-04-14T23:31:17.660Z,0.90
2023-04-14T23:33:48.708Z,0.90
2023-04-14T23:36:18.725Z,0.98
2023-04-14T23:38:47.135Z,0.68
2023-04-14T23:41:15.961Z,0.55
2023-04-14T23:43:44.478Z,0.60
2023-04-14T23:46:13.177Z,0.43
2023-04-14T23:48:41.766Z,0.40
2023-04-14T23:51:18.595Z,0.50
2023-04-14T23:53:49.952Z,0.82
2023-04-14T23:56:18.191Z,0.70
2023-04-14T23:58:47.198Z,0.60
